Time,TemperatureF,DewpointF,PressureIn,WindDirection,WindDirectionDegrees,WindSpeedMPH,WindSpeedGustMPH,Humidity,HourlyPrecipIn,Conditions,Clouds,dailyrainin,SoftwareType,DateUTC
2013-06-01 00:03:00,75.4,73.0,30.06,East,101,5.0,9.0,92,0.00,,,0.00,weatherlink.com 1.10,2013-06-01 04:03:00,
2013-06-01 00:18:00,75.2,73.0,30.05,East,89,5.0,8.0,93,0.00,,,0.00,weatherlink.com 1.10,2013-06-01 04:18:00,
2013-06-01 00:33:00,74.9,73.0,30.05,ESE,109,3.0,7.0,94,0.00,,,0.00,weatherlink.com 1.10,2013-06-01 04:33:00,
2013-06-01 00:48:00,74.8,73.0,30.04,ENE,78,5.0,9.0,95,0.00,,,0.00,weatherlink.com 1.10,2013-06-01 04:48:00,
2013-06-01 01:03:00,74.6,73.0,30.04,ENE,73,5.0,9.0,95,0.00,,,0.00,weatherlink.com 1.10,2013-06-01 05:03:00,
2013-06-01 01:18:00,74.6,73.0,30.04,East,99,2.0,8.0,95,0.00,,,0.00,weatherlink.com 1.10,2013-06-01 05:18:00,
2013-06-01 01:33:00,74.5,73.0,30.03,East,81,6.0,9.0,96,0.00,,,0.00,weatherlink.com 1.10,2013-06-01 05:33:00,
2013-06-01 01:48:00,74.3,73.0,30.03,East,94,7.0,9.0,95,0.00,,,0.00,weatherlink.com 1.10,2013-06-01 05:48:00,
2013-06-01 02:03:00,74.0,73.0,30.02,ESE,117,3.0,8.0,95,0.00,,,0.00,weatherlink.com 1.10,2013-06-01 06:03:00,
2013-06-01 02:18:00,73.2,72.0,30.02,SE,124,2.0,5.0,95,0.00,,,0.00,weatherlink.com 1.10,2013-06-01 06:18:00,
2013-06-01 02:33:00,73.1,72.0,30.01,East,94,3.0,5.0,96,0.00,,,0.00,weatherlink.com 1.10,2013-06-01 06:33:00,
2013-06-01 02:48:00,73.0,72.0,30.01,ESE,103,5.0,5.0,97,0.00,,,0.00,weatherlink.com 1.10,2013-06-01 06:48:00,
2013-06-01 03:03:00,73.1,72.0,30.00,ESE,118,2.0,7.0,97,0.00,,,0.00,weatherlink.com 1.10,2013-06-01 07:03:00,
2013-06-01 03:18:00,73.5,73.0,30.00,East,82,5.0,7.0,97,0.00,,,0.00,weatherlink.com 1.10,2013-06-01 07:18:00,
2013-06-01 03:33:00,73.6,73.0,30.00,ENE,76,3.0,8.0,97,0.00,,,0.00,weatherlink.com 1.10,2013-06-01 07:33:00,
2013-06-01 03:48:00,73.5,73.0,30.00,East,84,5.0,8.0,97,0.00,,,0.00,weatherlink.com 1.10,2013-06-01 07:48:00,
2013-06-01 04:03:00,73.6,73.0,30.00,East,96,3.0,7.0,97,0.00,,,0.00,weatherlink.com 1.10,2013-06-01 08:03:00,
2013-06-01 04:18:00,73.3,72.0,30.00,East,97,2.0,6.0,97,0.00,,,0.00,weatherlink.com 1.10,2013-06-01 08:18:00,
2013-06-01 04:33:00,73.0,72.0,29.99,ESE,113,4.0,5.0,97,0.00,,,0.00,weatherlink.com 1.10,2013-06-01 08:33:00,
2013-06-01 04:48:00,73.2,73.0,29.99,East,94,3.0,5.0,98,0.00,,,0.00,weatherlink.com 1.10,2013-06-01 08:48:00,
2013-06-01 05:03:00,73.2,72.0,29.99,ESE,119,3.0,6.0,97,0.00,,,0.00,weatherlink.com 1.10,2013-06-01 09:03:00,
2013-06-01 05:18:00,73.6,73.0,30.00,East,92,3.0,7.0,97,0.00,,,0.00,weatherlink.com 1.10,2013-06-01 09:18:00,
2013-06-01 05:33:00,73.7,73.0,30.00,East,88,6.0,9.0,98,0.00,,,0.00,weatherlink.com 1.10,2013-06-01 09:33:00,
2013-06-01 05:48:00,73.6,73.0,30.00,ENE,78,4.0,8.0,97,0.00,,,0.00,weatherlink.com 1.10,2013-06-01 09:48:00,
2013-06-01 06:03:00,73.6,73.0,30.01,East,91,3.0,7.0,98,0.00,,,0.00,weatherlink.com 1.10,2013-06-01 10:03:00,
2013-06-01 06:18:00,73.5,73.0,30.00,ENE,78,4.0,7.0,98,0.00,,,0.00,weatherlink.com 1.10,2013-06-01 10:18:00,
2013-06-01 06:33:00,73.9,73.0,30.01,East,89,3.0,8.0,98,0.00,,,0.00,weatherlink.com 1.10,2013-06-01 10:33:00,
2013-06-01 06:48:00,74.0,73.0,30.01,ENE,67,8.0,9.0,98,0.00,,,0.00,weatherlink.com 1.10,2013-06-01 10:48:00,
2013-06-01 07:03:00,74.5,74.0,30.02,East,80,5.0,8.0,98,0.00,,,0.00,weatherlink.com 1.10,2013-06-01 11:03:00,
2013-06-01 07:18:00,74.8,74.0,30.02,East,87,6.0,9.0,98,0.01,,,0.01,weatherlink.com 1.10,2013-06-01 11:18:00,
2013-06-01 07:33:00,75.2,74.0,30.02,East,83,8.0,10.0,97,0.01,,,0.01,weatherlink.com 1.10,2013-06-01 11:33:00,
2013-06-01 07:48:00,75.5,74.0,30.02,East,90,7.0,10.0,95,0.01,,,0.01,weatherlink.com 1.10,2013-06-01 11:48:00,
2013-06-01 08:04:00,76.4,75.0,30.03,East,98,9.0,13.0,94,0.01,,,0.01,weatherlink.com 1.10,2013-06-01 12:04:00,
2013-06-01 08:19:00,76.7,74.0,30.03,ESE,104,5.0,10.0,92,0.00,,,0.01,weatherlink.com 1.10,2013-06-01 12:19:00,
2013-06-01 08:34:00,77.6,75.0,30.04,ESE,122,5.0,13.0,91,0.00,,,0.01,weatherlink.com 1.10,2013-06-01 12:34:00,
2013-06-01 08:49:00,78.0,75.0,30.04,East,88,7.0,11.0,91,0.00,,,0.01,weatherlink.com 1.10,2013-06-01 12:49:00,
2013-06-01 09:04:00,78.8,75.0,30.04,SE,130,6.0,13.0,88,0.00,,,0.01,weatherlink.com 1.10,2013-06-01 13:04:00,
2013-06-01 09:19:00,78.8,75.0,30.04,ESE,121,7.0,13.0,88,0.00,,,0.01,weatherlink.com 1.10,2013-06-01 13:19:00,
2013-06-01 09:34:00,78.9,75.0,30.04,ESE,117,4.0,12.0,87,0.00,,,0.01,weatherlink.com 1.10,2013-06-01 13:34:00,
2013-06-01 09:49:00,79.3,76.0,30.04,ESE,111,8.0,12.0,88,0.00,,,0.01,weatherlink.com 1.10,2013-06-01 13:49:00,
2013-06-01 10:04:00,79.4,75.0,30.03,SE,130,8.0,11.0,86,0.00,,,0.01,weatherlink.com 1.10,2013-06-01 14:04:00,
2013-06-01 10:19:00,80.5,75.0,30.03,SE,138,8.0,12.0,84,0.00,,,0.01,weatherlink.com 1.10,2013-06-01 14:19:00,
2013-06-01 10:34:00,82.3,76.0,30.03,ESE,112,8.0,12.0,81,0.00,,,0.01,weatherlink.com 1.10,2013-06-01 14:34:00,
2013-06-01 10:49:00,81.2,76.0,30.03,ESE,103,4.0,9.0,83,0.00,,,0.01,weatherlink.com 1.10,2013-06-01 14:49:00,
2013-06-01 11:04:00,81.1,75.0,30.03,ESE,111,9.0,12.0,82,0.00,,,0.01,weatherlink.com 1.10,2013-06-01 15:04:00,
2013-06-01 11:19:00,81.0,75.0,30.03,SE,132,6.0,11.0,83,0.00,,,0.01,weatherlink.com 1.10,2013-06-01 15:19:00,
2013-06-01 11:34:00,81.6,75.0,30.03,ESE,119,7.0,10.0,81,0.00,,,0.01,weatherlink.com 1.10,2013-06-01 15:34:00,
2013-06-01 11:49:00,81.2,76.0,30.02,East,84,3.0,8.0,84,0.00,,,0.01,weatherlink.com 1.10,2013-06-01 15:49:00,
2013-06-01 12:04:00,82.7,76.0,30.02,SE,128,6.0,13.0,80,0.00,,,0.01,weatherlink.com 1.10,2013-06-01 16:04:00,
2013-06-01 12:19:00,83.2,76.0,30.02,ESE,115,5.0,13.0,79,0.00,,,0.01,weatherlink.com 1.10,2013-06-01 16:19:00,
2013-06-01 12:34:00,84.0,77.0,30.02,ESE,104,8.0,10.0,80,0.00,,,0.01,weatherlink.com 1.10,2013-06-01 16:34:00,
2013-06-01 12:49:00,84.7,77.0,30.02,ESE,103,3.0,10.0,78,0.00,,,0.01,weatherlink.com 1.10,2013-06-01 16:49:00,
2013-06-01 13:04:00,84.7,76.0,30.01,ESE,117,7.0,10.0,76,0.00,,,0.01,weatherlink.com 1.10,2013-06-01 17:04:00,
2013-06-01 13:19:00,84.7,75.0,30.01,East,91,10.0,12.0,73,0.00,,,0.01,weatherlink.com 1.10,2013-06-01 17:19:00,
2013-06-01 13:34:00,84.4,75.0,30.01,SE,130,7.0,14.0,74,0.00,,,0.01,weatherlink.com 1.10,2013-06-01 17:34:00,
2013-06-01 13:49:00,85.0,75.0,30.00,ESE,110,7.0,15.0,73,0.00,,,0.01,weatherlink.com 1.10,2013-06-01 17:49:00,
2013-06-01 14:04:00,84.8,76.0,30.00,ESE,111,7.0,9.0,74,0.00,,,0.01,weatherlink.com 1.10,2013-06-01 18:04:00,
2013-06-01 14:19:00,85.5,76.0,29.99,SE,126,8.0,13.0,73,0.00,,,0.01,weatherlink.com 1.10,2013-06-01 18:19:00,
2013-06-01 14:34:00,85.1,77.0,29.98,East,80,11.0,11.0,77,0.00,,,0.01,weatherlink.com 1.10,2013-06-01 18:34:00,
2013-06-01 14:49:00,85.7,76.0,29.98,ESE,118,7.0,10.0,73,0.00,,,0.01,weatherlink.com 1.10,2013-06-01 18:49:00,
2013-06-01 15:04:00,87.1,75.0,29.97,East,84,9.0,13.0,68,0.00,,,0.01,weatherlink.com 1.10,2013-06-01 19:04:00,
2013-06-01 15:19:00,86.8,77.0,29.96,East,94,10.0,14.0,72,0.00,,,0.01,weatherlink.com 1.10,2013-06-01 19:19:00,
2013-06-01 15:34:00,87.0,77.0,29.97,East,95,10.0,13.0,71,0.00,,,0.01,weatherlink.com 1.10,2013-06-01 19:34:00,
2013-06-01 15:49:00,87.0,76.0,29.96,East,101,6.0,14.0,70,0.00,,,0.01,weatherlink.com 1.10,2013-06-01 19:49:00,
2013-06-01 16:04:00,86.8,78.0,29.95,East,81,11.0,13.0,75,0.00,,,0.01,weatherlink.com 1.10,2013-06-01 20:04:00,
2013-06-01 16:19:00,84.9,75.0,29.95,SE,126,9.0,13.0,73,0.00,,,0.01,weatherlink.com 1.10,2013-06-01 20:19:00,
2013-06-01 16:34:00,84.2,76.0,29.95,ESE,119,7.0,12.0,75,0.00,,,0.01,weatherlink.com 1.10,2013-06-01 20:34:00,
2013-06-01 16:49:00,83.7,76.0,29.94,SE,138,7.0,12.0,78,0.00,,,0.01,weatherlink.com 1.10,2013-06-01 20:49:00,
2013-06-01 17:04:00,83.3,76.0,29.95,SE,142,13.0,15.0,79,0.00,,,0.01,weatherlink.com 1.10,2013-06-01 21:04:00,
2013-06-01 17:19:00,82.3,76.0,29.96,SSE,157,7.0,15.0,81,0.01,,,0.02,weatherlink.com 1.10,2013-06-01 21:19:00,
2013-06-01 17:34:00,81.0,77.0,29.96,SE,138,9.0,15.0,86,0.01,,,0.02,weatherlink.com 1.10,2013-06-01 21:34:00,
2013-06-01 17:49:00,80.0,77.0,29.96,SE,134,6.0,15.0,89,0.01,,,0.02,weatherlink.com 1.10,2013-06-01 21:49:00,
2013-06-01 18:04:00,78.6,76.0,29.96,SSW,197,8.0,18.0,90,0.01,,,0.02,weatherlink.com 1.10,2013-06-01 22:04:00,
2013-06-01 18:19:00,77.8,75.0,29.96,SE,145,9.0,18.0,91,0.00,,,0.02,weatherlink.com 1.10,2013-06-01 22:19:00,
2013-06-01 18:34:00,77.2,75.0,29.97,SSE,157,10.0,15.0,94,0.00,,,0.02,weatherlink.com 1.10,2013-06-01 22:34:00,
2013-06-01 18:49:00,76.8,75.0,29.97,SSW,197,8.0,14.0,94,0.00,,,0.02,weatherlink.com 1.10,2013-06-01 22:49:00,
2013-06-01 19:05:00,76.6,75.0,29.98,South,182,5.0,13.0,95,0.00,,,0.02,weatherlink.com 1.10,2013-06-01 23:05:00,
2013-06-01 19:20:00,76.5,75.0,29.99,SE,137,4.0,12.0,96,0.00,,,0.02,weatherlink.com 1.10,2013-06-01 23:20:00,
2013-06-01 19:35:00,76.4,75.0,29.98,SSE,155,9.0,11.0,96,0.00,,,0.02,weatherlink.com 1.10,2013-06-01 23:35:00,
2013-06-01 19:50:00,76.3,75.0,29.97,SSE,162,5.0,13.0,96,0.00,,,0.02,weatherlink.com 1.10,2013-06-01 23:50:00,
2013-06-01 20:05:00,75.9,75.0,29.99,SSW,201,9.0,15.0,96,0.00,,,0.02,weatherlink.com 1.10,2013-06-02 00:05:00,
2013-06-01 20:20:00,75.4,74.0,30.00,SSE,161,5.0,17.0,96,0.00,,,0.02,weatherlink.com 1.10,2013-06-02 00:20:00,
2013-06-01 20:35:00,74.8,73.0,30.00,SSW,202,12.0,14.0,95,0.00,,,0.02,weatherlink.com 1.10,2013-06-02 00:35:00,
2013-06-01 20:50:00,74.4,73.0,30.00,SSW,198,8.0,15.0,94,0.00,,,0.02,weatherlink.com 1.10,2013-06-02 00:50:00,
2013-06-01 21:05:00,74.2,73.0,30.01,SSW,195,7.0,10.0,95,0.00,,,0.02,weatherlink.com 1.10,2013-06-02 01:05:00,
2013-06-01 21:20:00,74.3,73.0,30.00,SSW,206,5.0,9.0,95,0.00,,,0.02,weatherlink.com 1.10,2013-06-02 01:20:00,
2013-06-01 21:35:00,74.0,73.0,30.00,SSW,198,3.0,9.0,95,0.00,,,0.02,weatherlink.com 1.10,2013-06-02 01:35:00,
2013-06-01 21:50:00,74.1,73.0,29.99,SSW,196,7.0,10.0,96,0.00,,,0.02,weatherlink.com 1.10,2013-06-02 01:50:00,
2013-06-01 22:05:00,74.0,73.0,30.01,West,263,5.0,8.0,95,0.00,,,0.02,weatherlink.com 1.10,2013-06-02 02:05:00,
2013-06-01 22:20:00,73.9,72.0,30.01,SW,217,3.0,8.0,95,0.00,,,0.02,weatherlink.com 1.10,2013-06-02 02:20:00,
2013-06-01 22:35:00,74.0,73.0,30.02,SW,222,0.0,0.0,95,0.00,,,0.02,weatherlink.com 1.10,2013-06-02 02:35:00,
2013-06-01 22:50:00,74.5,73.0,30.01,ENE,71,1.0,5.0,96,0.00,,,0.02,weatherlink.com 1.10,2013-06-02 02:50:00,
2013-06-01 23:05:00,74.3,73.0,30.02,NE,35,6.0,8.0,97,0.00,,,0.02,weatherlink.com 1.10,2013-06-02 03:05:00,
2013-06-01 23:20:00,74.2,73.0,30.01,WNW,296,5.0,13.0,97,0.00,,,0.02,weatherlink.com 1.10,2013-06-02 03:20:00,
2013-06-01 23:35:00,74.0,73.0,30.00,SSW,195,0.0,5.0,97,0.00,,,0.02,weatherlink.com 1.10,2013-06-02 03:35:00,
2013-06-01 23:50:00,73.9,73.0,30.01,WSW,242,0.0,3.0,97,0.00,,,0.02,weatherlink.com 1.10,2013-06-02 03:50:00,